createdAt,value
2023-12-29T00:00:14.481Z,94973.00
2023-12-29T00:01:14.548Z,94972.00
2023-12-29T00:02:14.524Z,94972.00
2023-12-29T00:03:14.581Z,94972.00
2023-12-29T00:04:14.667Z,94972.00
2023-12-29T00:05:14.597Z,94974.00
2023-12-29T00:06:14.618Z,94972.00
2023-12-29T00:07:14.710Z,94971.00
2023-12-29T00:08:14.637Z,94972.00
2023-12-29T00:09:14.652Z,94971.00
2023-12-29T00:10:14.757Z,94967.00
2023-12-29T00:11:14.710Z,94965.00
2023-12-29T00:12:14.738Z,94962.00
2023-12-29T00:13:14.770Z,94959.00
2023-12-29T00:14:14.755Z,94961.00
2023-12-29T00:15:14.780Z,94958.00
2023-12-29T00:16:14.831Z,94959.00
2023-12-29T00:17:14.814Z,94960.00
2023-12-29T00:18:14.886Z,94962.00
2023-12-29T00:19:15.011Z,94960.00
2023-12-29T00:20:21.929Z,94962.00
2023-12-29T00:21:18.425Z,94960.00
2023-12-29T00:22:14.970Z,94962.00
2023-12-29T00:23:14.872Z,94963.00
2023-12-29T00:24:14.882Z,94959.00
2023-12-29T00:25:15.004Z,94963.00
2023-12-29T00:26:14.876Z,94962.00
2023-12-29T00:27:14.902Z,94961.00
2023-12-29T00:28:14.984Z,94963.00
2023-12-29T00:29:14.907Z,94962.00
2023-12-29T00:30:14.913Z,94960.00
2023-12-29T00:31:14.924Z,94960.00
2023-12-29T00:32:14.897Z,94955.00
2023-12-29T00:33:14.955Z,94954.00
2023-12-29T00:34:15.002Z,94953.00
2023-12-29T00:35:14.916Z,94951.00
2023-12-29T00:36:14.879Z,94953.00
2023-12-29T00:37:14.921Z,94955.00
2023-12-29T00:38:14.915Z,94955.00
2023-12-29T00:39:14.901Z,94960.00
2023-12-29T00:40:14.949Z,94960.00
2023-12-29T00:41:14.890Z,94962.00
2023-12-29T00:42:14.912Z,94960.00
2023-12-29T00:43:14.984Z,94963.00
2023-12-29T00:44:14.946Z,94961.00
2023-12-29T00:45:14.953Z,94961.00
2023-12-29T00:46:15.056Z,94964.00
2023-12-29T00:47:15.015Z,94961.00
2023-12-29T00:48:15.146Z,94963.00
2023-12-29T00:49:15.332Z,94960.00
2023-12-29T00:50:15.114Z,94957.00
2023-12-29T00:51:15.102Z,94956.00
2023-12-29T00:52:15.231Z,94955.00
2023-12-29T00:53:15.145Z,94957.00
2023-12-29T00:54:15.288Z,94956.00
2023-12-29T00:55:15.324Z,94958.00
2023-12-29T00:56:15.203Z,94957.00
2023-12-29T00:57:15.247Z,94954.00
2023-12-29T00:58:15.420Z,94955.00
2023-12-29T00:59:15.297Z,94955.00
2023-12-29T01:00:15.350Z,94955.00
2023-12-29T01:01:15.461Z,94952.00
2023-12-29T01:02:15.387Z,94951.00
2023-12-29T01:03:15.369Z,94953.00
2023-12-29T01:04:15.589Z,94958.00
2023-12-29T01:05:15.455Z,94966.00
2023-12-29T01:06:15.408Z,94970.00
2023-12-29T01:07:15.476Z,94971.00
2023-12-29T01:08:15.484Z,94970.00
2023-12-29T01:09:15.491Z,94970.00
2023-12-29T01:10:15.649Z,94971.00
2023-12-29T01:11:15.533Z,94976.00
2023-12-29T01:12:15.557Z,94980.00
2023-12-29T01:13:15.604Z,94982.00
2023-12-29T01:14:15.592Z,94986.00
2023-12-29T01:15:15.619Z,94987.00
2023-12-29T01:16:15.760Z,94986.00
2023-12-29T01:17:15.673Z,94984.00
2023-12-29T01:18:15.859Z,94983.00
2023-12-29T01:19:15.972Z,94983.00
2023-12-29T01:20:15.728Z,94984.00
2023-12-29T01:21:15.744Z,94984.00
2023-12-29T01:22:15.837Z,94985.00
2023-12-29T01:23:15.797Z,94985.00
2023-12-29T01:24:16.787Z,94988.00
2023-12-29T01:25:15.897Z,94987.00
2023-12-29T01:26:15.884Z,94990.00
2023-12-29T01:27:15.975Z,94994.00
2023-12-29T01:28:16.007Z,94993.00
2023-12-29T01:29:15.953Z,94994.00
2023-12-29T01:30:16.008Z,94994.00
2023-12-29T01:31:16.057Z,94991.00
2023-12-29T01:32:16.026Z,94993.00
2023-12-29T01:33:16.196Z,94993.00
2023-12-29T01:34:16.177Z,94994.00
2023-12-29T01:35:17.687Z,94995.00
2023-12-29T01:36:18.157Z,94994.00
2023-12-29T01:37:17.179Z,94994.00
2023-12-29T01:38:16.093Z,94992.00
2023-12-29T01:39:16.100Z,94994.00
2023-12-29T01:40:16.160Z,94992.00
2023-12-29T01:41:16.103Z,94992.00
2023-12-29T01:42:16.140Z,94990.00
2023-12-29T01:43:16.170Z,94991.00
2023-12-29T01:44:16.115Z,94988.00
2023-12-29T01:45:16.092Z,94985.00
2023-12-29T01:46:16.145Z,94987.00
2023-12-29T01:47:16.151Z,94986.00
2023-12-29T01:48:16.164Z,94983.00
2023-12-29T01:49:16.176Z,94980.00
2023-12-29T01:50:16.976Z,94976.00
2023-12-29T01:51:16.104Z,94977.00
2023-12-29T01:52:16.190Z,94977.00
2023-12-29T01:53:16.163Z,94977.00
2023-12-29T01:54:16.134Z,94973.00
2023-12-29T01:55:16.163Z,94969.00
2023-12-29T01:56:16.120Z,94966.00
2023-12-29T01:57:16.136Z,94965.00
2023-12-29T01:58:16.218Z,94963.00
2023-12-29T01:59:25.067Z,94960.00
2023-12-29T02:00:17.152Z,94959.00
2023-12-29T02:01:16.214Z,94959.00
2023-12-29T02:02:16.198Z,94957.00
2023-12-29T02:03:16.215Z,94960.00
2023-12-29T02:04:16.209Z,94957.00
2023-12-29T02:05:16.212Z,94963.00
2023-12-29T02:06:16.145Z,94967.00
2023-12-29T02:07:16.285Z,94968.00
2023-12-29T02:08:16.150Z,94970.00
2023-12-29T02:09:16.135Z,94972.00
2023-12-29T02:10:16.301Z,94974.00
2023-12-29T02:11:16.147Z,94972.00
2023-12-29T02:12:16.223Z,94972.00
2023-12-29T02:13:16.225Z,94970.00
2023-12-29T02:14:16.157Z,94970.00
2023-12-29T02:15:16.172Z,94969.00
2023-12-29T02:16:16.174Z,94967.00
2023-12-29T02:17:16.176Z,94969.00
2023-12-29T02:18:16.252Z,94971.00
2023-12-29T02:19:16.315Z,94973.00
2023-12-29T02:20:16.159Z,94971.00
2023-12-29T02:21:16.172Z,94974.00
2023-12-29T02:22:16.381Z,94972.00
2023-12-29T02:23:16.192Z,94976.00
2023-12-29T02:24:16.221Z,94975.00
2023-12-29T02:25:17.115Z,94975.00
2023-12-29T02:26:16.262Z,94976.00
2023-12-29T02:27:16.291Z,94975.00
2023-12-29T02:28:16.466Z,94973.00
2023-12-29T02:29:16.346Z,94976.00
2023-12-29T02:30:16.389Z,94979.00
2023-12-29T02:31:16.476Z,94980.00
2023-12-29T02:32:16.439Z,94978.00
2023-12-29T02:33:16.558Z,94975.00
2023-12-29T02:34:16.673Z,94975.00
2023-12-29T02:35:16.511Z,94975.00
2023-12-29T02:36:16.540Z,94977.00
2023-12-29T02:37:16.547Z,94977.00
2023-12-29T02:38:16.574Z,94977.00
2023-12-29T02:39:16.598Z,94977.00
2023-12-29T02:40:16.774Z,94979.00
2023-12-29T02:41:16.649Z,94985.00
2023-12-29T02:42:16.692Z,94982.00
2023-12-29T02:43:16.847Z,94981.00
2023-12-29T02:44:16.745Z,94980.00
2023-12-29T02:45:16.785Z,94978.00
2023-12-29T02:46:16.883Z,94979.00
2023-12-29T02:47:16.827Z,94977.00
2023-12-29T02:48:16.952Z,94978.00
2023-12-29T02:49:16.945Z,94978.00
2023-12-29T02:50:16.927Z,94979.00
2023-12-29T02:51:16.951Z,94979.00
2023-12-29T02:52:17.001Z,94975.00
2023-12-29T02:53:17.041Z,94976.00
2023-12-29T02:54:17.105Z,94975.00
2023-12-29T02:55:17.170Z,94976.00
2023-12-29T02:56:17.104Z,94976.00
2023-12-29T02:57:17.160Z,94971.00
2023-12-29T02:58:17.292Z,94971.00
2023-12-29T02:59:17.187Z,94968.00
2023-12-29T03:00:17.236Z,94967.00
2023-12-29T03:01:17.348Z,94966.00
2023-12-29T03:02:17.334Z,94961.00
2023-12-29T03:03:17.364Z,94956.00
2023-12-29T03:04:17.364Z,94948.00
2023-12-29T03:05:17.442Z,94945.00
2023-12-29T03:06:17.412Z,94947.00
2023-12-29T03:07:17.531Z,94945.00
2023-12-29T03:08:17.511Z,94947.00
2023-12-29T03:09:17.511Z,94949.00
2023-12-29T03:10:17.572Z,94950.00
2023-12-29T03:11:17.578Z,94951.00
2023-12-29T03:12:17.605Z,94951.00
2023-12-29T03:13:17.724Z,94945.00
2023-12-29T03:14:17.669Z,94939.00
2023-12-29T03:15:17.706Z,94940.00
2023-12-29T03:16:17.753Z,94945.00
2023-12-29T03:17:17.809Z,94946.00
2023-12-29T03:18:17.880Z,94947.00
2023-12-29T03:19:18.027Z,94941.00
2023-12-29T03:20:17.861Z,94939.00
2023-12-29T03:21:17.876Z,94938.00
2023-12-29T03:22:17.967Z,94935.00
2023-12-29T03:23:17.947Z,94931.00
2023-12-29T03:24:17.969Z,94934.00
2023-12-29T03:25:18.157Z,94934.00
2023-12-29T03:26:18.048Z,94937.00
2023-12-29T03:27:18.058Z,94936.00
2023-12-29T03:28:18.120Z,94933.00
2023-12-29T03:29:18.138Z,94932.00
2023-12-29T03:30:18.330Z,94933.00
2023-12-29T03:31:18.225Z,94934.00
2023-12-29T03:32:18.204Z,94929.00
2023-12-29T03:33:18.310Z,94924.00
2023-12-29T03:34:18.388Z,94923.00
2023-12-29T03:35:18.305Z,94924.00
2023-12-29T03:36:18.328Z,94927.00
2023-12-29T03:37:18.422Z,94928.00
2023-12-29T03:38:18.376Z,94928.00
2023-12-29T03:39:18.406Z,94924.00
2023-12-29T03:40:18.633Z,94924.00
2023-12-29T03:41:18.465Z,94924.00
2023-12-29T03:42:18.484Z,94924.00
2023-12-29T03:43:18.528Z,94923.00
2023-12-29T03:44:18.536Z,94918.00
2023-12-29T03:45:18.581Z,94917.00
2023-12-29T03:46:18.661Z,94911.00
2023-12-29T03:47:18.619Z,94910.00
2023-12-29T03:48:18.735Z,94906.00
2023-12-29T03:49:18.708Z,94902.00
2023-12-29T03:50:18.700Z,94900.00
2023-12-29T03:51:18.733Z,94900.00
2023-12-29T03:52:18.802Z,94904.00
2023-12-29T03:53:18.783Z,94905.00
2023-12-29T03:54:18.833Z,94902.00
2023-12-29T03:55:18.915Z,94901.00
2023-12-29T03:56:18.881Z,94905.00
2023-12-29T03:57:18.929Z,94911.00
2023-12-29T03:58:18.995Z,94916.00
2023-12-29T03:59:18.975Z,94919.00
2023-12-29T04:00:18.979Z,94920.00
2023-12-29T04:01:19.108Z,94919.00
2023-12-29T04:02:19.064Z,94916.00
2023-12-29T04:03:19.087Z,94915.00
2023-12-29T04:04:19.166Z,94912.00
2023-12-29T04:05:19.148Z,94913.00
2023-12-29T04:06:19.159Z,94918.00
2023-12-29T04:07:19.197Z,94922.00
2023-12-29T04:08:19.231Z,94929.00
2023-12-29T04:09:19.249Z,94932.00
2023-12-29T04:10:19.324Z,94931.00
2023-12-29T04:11:19.349Z,94924.00
2023-12-29T04:12:19.382Z,94923.00
2023-12-29T04:13:19.394Z,94925.00
2023-12-29T04:14:19.404Z,94923.00
2023-12-29T04:15:19.449Z,94924.00
2023-12-29T04:16:19.498Z,94917.00
2023-12-29T04:17:19.517Z,94915.00
2023-12-29T04:18:19.647Z,94914.00
2023-12-29T04:19:19.696Z,94910.00
2023-12-29T04:20:19.607Z,94911.00
2023-12-29T04:21:19.631Z,94912.00
2023-12-29T04:22:19.671Z,94914.00
2023-12-29T04:23:19.685Z,94917.00
2023-12-29T04:24:19.720Z,94916.00
2023-12-29T04:25:19.750Z,94912.00
2023-12-29T04:26:19.762Z,94905.00
2023-12-29T04:27:19.840Z,94904.00
2023-12-29T04:28:19.829Z,94902.00
2023-12-29T04:29:19.888Z,94901.00
2023-12-29T04:30:19.894Z,94898.00
2023-12-29T04:31:19.932Z,94900.00
2023-12-29T04:32:19.952Z,94904.00
2023-12-29T04:33:19.994Z,94907.00
2023-12-29T04:34:20.049Z,94911.00
2023-12-29T04:35:20.036Z,94913.00
2023-12-29T04:36:20.085Z,94912.00
2023-12-29T04:37:20.112Z,94914.00
2023-12-29T04:38:20.144Z,94914.00
2023-12-29T04:39:20.163Z,94917.00
2023-12-29T04:40:20.192Z,94916.00
2023-12-29T04:41:20.223Z,94916.00
2023-12-29T04:42:20.254Z,94916.00
2023-12-29T04:43:20.306Z,94915.00
2023-12-29T04:44:20.315Z,94914.00
2023-12-29T04:45:20.332Z,94910.00
2023-12-29T04:46:20.370Z,94906.00
2023-12-29T04:47:20.450Z,94903.00
2023-12-29T04:48:20.486Z,94901.00
2023-12-29T04:49:20.553Z,94899.00
2023-12-29T04:50:20.475Z,94895.00
2023-12-29T04:51:20.525Z,94890.00
2023-12-29T04:52:20.516Z,94886.00
2023-12-29T04:53:20.546Z,94886.00
2023-12-29T04:54:20.589Z,94885.00
2023-12-29T04:55:20.657Z,94887.00
2023-12-29T04:56:20.632Z,94885.00
2023-12-29T04:57:20.662Z,94884.00
2023-12-29T04:58:20.775Z,94879.00
2023-12-29T04:59:20.736Z,94880.00
2023-12-29T05:00:28.086Z,94878.00
2023-12-29T05:01:28.158Z,94880.00
2023-12-29T05:02:28.115Z,94877.00
2023-12-29T05:03:28.211Z,94878.00
2023-12-29T05:04:28.134Z,94878.00
2023-12-29T05:05:28.130Z,94877.00
2023-12-29T05:06:28.082Z,94875.00
2023-12-29T05:07:28.096Z,94873.00
2023-12-29T05:08:28.113Z,94874.00
2023-12-29T05:09:28.094Z,94875.00
2023-12-29T05:10:28.119Z,94877.00
2023-12-29T05:11:28.087Z,94877.00
2023-12-29T05:12:28.155Z,94870.00
2023-12-29T05:13:28.123Z,94868.00
2023-12-29T05:14:28.105Z,94869.00
2023-12-29T05:15:28.090Z,94877.00
2023-12-29T05:16:28.080Z,94878.00
2023-12-29T05:17:28.158Z,94877.00
2023-12-29T05:18:28.165Z,94876.00
2023-12-29T05:19:28.235Z,94878.00
2023-12-29T05:20:28.124Z,94876.00
2023-12-29T05:21:28.105Z,94872.00
2023-12-29T05:22:28.141Z,94868.00
2023-12-29T05:23:28.113Z,94862.00
2023-12-29T05:24:28.119Z,94861.00
2023-12-29T05:25:28.112Z,94867.00
2023-12-29T05:26:28.106Z,94876.00
2023-12-29T05:27:28.139Z,94877.00
2023-12-29T05:28:28.148Z,94873.00
2023-12-29T05:29:28.112Z,94868.00
2023-12-29T05:30:28.165Z,94868.00
2023-12-29T05:31:28.158Z,94872.00
2023-12-29T05:32:28.185Z,94881.00
2023-12-29T05:33:28.216Z,94886.00
2023-12-29T05:34:28.189Z,94884.00
2023-12-29T05:35:28.117Z,94877.00
2023-12-29T05:36:28.118Z,94872.00
2023-12-29T05:37:28.164Z,94867.00
2023-12-29T05:38:28.120Z,94868.00
2023-12-29T05:39:28.133Z,94873.00
2023-12-29T05:40:28.137Z,94878.00
2023-12-29T05:41:28.136Z,94878.00
2023-12-29T05:42:28.167Z,94874.00
2023-12-29T05:43:28.131Z,94869.00
2023-12-29T05:44:28.162Z,94865.00
2023-12-29T05:45:28.137Z,94867.00
2023-12-29T05:46:28.150Z,94873.00
2023-12-29T05:47:28.183Z,94882.00
2023-12-29T05:48:28.229Z,94888.00
2023-12-29T05:49:28.232Z,94892.00
2023-12-29T05:50:28.144Z,94890.00
2023-12-29T05:51:28.151Z,94885.00
2023-12-29T05:52:28.136Z,94883.00
2023-12-29T05:53:28.152Z,94883.00
2023-12-29T05:54:28.154Z,94884.00
2023-12-29T05:55:28.212Z,94890.00
2023-12-29T05:56:28.239Z,94891.00
2023-12-29T05:57:28.231Z,94890.00
2023-12-29T05:58:28.287Z,94891.00
2023-12-29T05:59:28.306Z,94896.00
2023-12-29T06:00:28.337Z,94900.00
2023-12-29T06:01:28.420Z,94901.00
2023-12-29T06:02:28.380Z,94895.00
2023-12-29T06:03:28.474Z,94891.00
2023-12-29T06:04:28.460Z,94885.00
2023-12-29T06:05:28.524Z,94879.00
2023-12-29T06:06:28.524Z,94879.00
2023-12-29T06:07:28.511Z,94879.00
2023-12-29T06:08:28.547Z,94883.00
2023-12-29T06:09:28.589Z,94884.00
2023-12-29T06:10:28.606Z,94881.00
2023-12-29T06:11:28.623Z,94876.00
2023-12-29T06:12:28.642Z,94881.00
2023-12-29T06:13:28.736Z,94883.00
2023-12-29T06:14:28.701Z,94890.00
2023-12-29T06:15:28.721Z,94893.00
2023-12-29T06:16:28.767Z,94893.00
2023-12-29T06:17:28.795Z,94889.00
2023-12-29T06:18:28.976Z,94883.00
2023-12-29T06:19:28.850Z,94883.00
2023-12-29T06:20:28.866Z,94881.00
2023-12-29T06:21:28.904Z,94880.00
2023-12-29T06:22:28.913Z,94876.00
2023-12-29T06:23:28.960Z,94871.00
2023-12-29T06:24:28.981Z,94865.00
2023-12-29T06:25:29.001Z,94866.00
2023-12-29T06:26:29.030Z,94861.00
2023-12-29T06:27:29.096Z,94868.00
2023-12-29T06:28:29.136Z,94871.00
2023-12-29T06:29:29.111Z,94874.00
2023-12-29T06:30:29.209Z,94876.00
2023-12-29T06:31:29.195Z,94876.00
2023-12-29T06:32:29.255Z,94874.00
2023-12-29T06:33:29.276Z,94873.00
2023-12-29T06:34:29.367Z,94869.00
2023-12-29T06:35:29.322Z,94866.00
2023-12-29T06:36:29.343Z,94864.00
2023-12-29T06:37:29.413Z,94865.00
2023-12-29T06:38:29.423Z,94870.00
2023-12-29T06:39:29.441Z,94871.00
2023-12-29T06:40:29.489Z,94874.00
2023-12-29T06:41:29.516Z,94875.00
2023-12-29T06:42:29.551Z,94875.00
2023-12-29T06:43:29.586Z,94875.00
2023-12-29T06:44:29.609Z,94875.00
2023-12-29T06:45:29.648Z,94874.00
2023-12-29T06:46:29.689Z,94874.00
2023-12-29T06:47:29.801Z,94876.00
2023-12-29T06:48:29.953Z,94876.00
2023-12-29T06:49:29.891Z,94874.00
2023-12-29T06:50:29.845Z,94872.00
2023-12-29T06:51:29.865Z,94870.00
2023-12-29T06:52:29.894Z,94865.00
2023-12-29T06:53:29.972Z,94867.00
2023-12-29T06:54:29.969Z,94871.00
2023-12-29T06:55:30.114Z,94871.00
2023-12-29T06:56:30.064Z,94876.00
2023-12-29T06:57:30.079Z,94876.00
2023-12-29T06:58:30.165Z,94876.00
2023-12-29T06:59:30.138Z,94879.00
2023-12-29T07:00:30.214Z,94880.00
2023-12-29T07:01:30.301Z,94879.00
2023-12-29T07:02:30.243Z,94878.00
2023-12-29T07:03:30.303Z,94881.00
2023-12-29T07:04:30.323Z,94878.00
2023-12-29T07:05:30.381Z,94876.00
2023-12-29T07:06:30.412Z,94874.00
2023-12-29T07:07:30.437Z,94875.00
2023-12-29T07:08:30.444Z,94877.00
2023-12-29T07:09:30.475Z,94872.00
2023-12-29T07:10:30.501Z,94870.00
2023-12-29T07:11:30.520Z,94867.00
2023-12-29T07:12:30.568Z,94865.00
2023-12-29T07:13:30.595Z,94866.00
2023-12-29T07:14:30.620Z,94866.00
2023-12-29T07:15:30.651Z,94866.00
2023-12-29T07:16:30.680Z,94866.00
2023-12-29T07:17:30.807Z,94867.00
2023-12-29T07:18:30.870Z,94866.00
2023-12-29T07:19:30.793Z,94863.00
2023-12-29T07:20:30.776Z,94861.00
2023-12-29T07:21:30.812Z,94862.00
2023-12-29T07:22:30.816Z,94865.00
2023-12-29T07:23:30.830Z,94867.00
2023-12-29T07:24:31.247Z,94872.00
2023-12-29T07:25:31.239Z,94875.00
2023-12-29T07:26:30.909Z,94871.00
2023-12-29T07:27:30.925Z,94868.00
2023-12-29T07:28:30.939Z,94865.00
2023-12-29T07:29:30.958Z,94871.00
2023-12-29T07:30:31.046Z,94877.00
2023-12-29T07:31:31.120Z,94882.00
2023-12-29T07:32:31.078Z,94883.00
2023-12-29T07:33:31.161Z,94881.00
2023-12-29T07:34:31.214Z,94880.00
2023-12-29T07:35:31.223Z,94884.00
2023-12-29T07:36:31.131Z,94888.00
2023-12-29T07:37:31.162Z,94889.00
2023-12-29T07:38:31.242Z,94889.00
2023-12-29T07:39:31.223Z,94890.00
2023-12-29T07:40:31.318Z,94892.00
2023-12-29T07:41:31.286Z,94893.00
2023-12-29T07:42:31.302Z,94897.00
2023-12-29T07:43:31.336Z,94897.00
2023-12-29T07:44:31.375Z,94897.00
2023-12-29T07:45:31.414Z,94895.00
2023-12-29T07:46:31.432Z,94890.00
2023-12-29T07:47:31.461Z,94887.00
2023-12-29T07:48:31.588Z,94883.00
2023-12-29T07:49:31.673Z,94884.00
2023-12-29T07:50:31.539Z,94883.00
2023-12-29T07:51:31.559Z,94885.00
2023-12-29T07:52:31.595Z,94883.00
2023-12-29T07:53:31.610Z,94883.00
2023-12-29T07:54:31.663Z,94888.00
2023-12-29T07:55:31.700Z,94891.00
2023-12-29T07:56:31.689Z,94896.00
2023-12-29T07:57:31.729Z,94899.00
2023-12-29T07:58:31.737Z,94905.00
2023-12-29T07:59:31.775Z,94911.00
2023-12-29T08:00:31.799Z,94914.00
2023-12-29T08:01:31.907Z,94920.00
2023-12-29T08:02:31.848Z,94922.00
2023-12-29T08:03:31.917Z,94923.00
2023-12-29T08:04:31.942Z,94921.00
2023-12-29T08:05:31.938Z,94922.00
2023-12-29T08:06:31.969Z,94921.00
2023-12-29T08:07:31.968Z,94923.00
2023-12-29T08:08:32.011Z,94921.00
2023-12-29T08:09:32.022Z,94920.00
2023-12-29T08:10:32.034Z,94917.00
2023-12-29T08:11:32.071Z,94918.00
2023-12-29T08:12:32.090Z,94922.00
2023-12-29T08:13:32.099Z,94928.00
2023-12-29T08:14:32.135Z,94928.00
2023-12-29T08:15:32.170Z,94929.00
2023-12-29T08:16:32.168Z,94927.00
2023-12-29T08:17:32.281Z,94928.00
2023-12-29T08:18:32.335Z,94926.00
2023-12-29T08:19:32.296Z,94925.00
2023-12-29T08:20:32.253Z,94921.00
2023-12-29T08:21:32.269Z,94917.00
2023-12-29T08:22:32.333Z,94913.00
2023-12-29T08:23:32.327Z,94908.00
2023-12-29T08:24:32.338Z,94905.00
2023-12-29T08:25:32.407Z,94901.00
2023-12-29T08:26:32.409Z,94902.00
2023-12-29T08:27:32.461Z,94903.00
2023-12-29T08:28:32.450Z,94906.00
2023-12-29T08:29:32.456Z,94909.00
2023-12-29T08:30:32.513Z,94909.00
2023-12-29T08:31:32.509Z,94906.00
2023-12-29T08:32:32.556Z,94899.00
2023-12-29T08:33:32.573Z,94900.00
2023-12-29T08:34:32.584Z,94900.00
2023-12-29T08:35:32.557Z,94897.00
2023-12-29T08:36:32.582Z,94897.00
2023-12-29T08:37:32.600Z,94899.00
2023-12-29T08:38:32.643Z,94896.00
2023-12-29T08:39:32.618Z,94896.00
2023-12-29T08:40:32.694Z,94893.00
2023-12-29T08:41:32.664Z,94896.00
2023-12-29T08:42:32.689Z,94897.00
2023-12-29T08:43:32.689Z,94900.00
2023-12-29T08:44:32.702Z,94904.00
2023-12-29T08:45:32.720Z,94907.00
2023-12-29T08:46:32.750Z,94910.00
2023-12-29T08:47:32.776Z,94914.00
2023-12-29T08:48:32.763Z,94913.00
2023-12-29T08:49:32.930Z,94915.00
2023-12-29T08:50:32.806Z,94913.00
2023-12-29T08:51:32.809Z,94910.00
2023-12-29T08:52:32.859Z,94911.00
2023-12-29T08:53:32.868Z,94916.00
2023-12-29T08:54:32.857Z,94918.00
2023-12-29T08:55:32.871Z,94920.00
2023-12-29T08:56:32.909Z,94923.00
2023-12-29T08:57:32.914Z,94923.00
2023-12-29T08:58:32.935Z,94926.00
2023-12-29T08:59:32.948Z,94925.00
2023-12-29T09:00:32.966Z,94925.00
2023-12-29T09:01:33.049Z,94923.00
2023-12-29T09:02:33.010Z,94924.00
2023-12-29T09:03:33.058Z,94929.00
2023-12-29T09:04:33.006Z,94930.00
2023-12-29T09:05:33.023Z,94929.00
2023-12-29T09:06:33.082Z,94928.00
2023-12-29T09:07:33.085Z,94923.00
2023-12-29T09:08:33.071Z,94924.00
2023-12-29T09:09:33.106Z,94926.00
2023-12-29T09:10:33.106Z,94929.00
2023-12-29T09:11:33.114Z,94934.00
2023-12-29T09:12:33.102Z,94935.00
2023-12-29T09:13:33.111Z,94938.00
2023-12-29T09:14:33.122Z,94932.00
2023-12-29T09:15:33.142Z,94929.00
2023-12-29T09:16:33.150Z,94926.00
2023-12-29T09:17:33.211Z,94923.00
2023-12-29T09:18:34.033Z,94926.00
2023-12-29T09:19:39.576Z,94930.00
2023-12-29T09:20:34.280Z,94932.00
2023-12-29T09:21:33.209Z,94932.00
2023-12-29T09:22:33.221Z,94932.00
2023-12-29T09:23:33.227Z,94929.00
2023-12-29T09:24:33.220Z,94930.00
2023-12-29T09:25:33.316Z,94931.00
2023-12-29T09:26:33.224Z,94934.00
2023-12-29T09:27:33.220Z,94934.00
2023-12-29T09:28:33.226Z,94930.00
2023-12-29T09:29:33.220Z,94927.00
2023-12-29T09:30:33.275Z,94927.00
2023-12-29T09:31:33.276Z,94926.00
2023-12-29T09:32:33.293Z,94926.00
2023-12-29T09:33:33.300Z,94925.00
2023-12-29T09:34:33.330Z,94925.00
2023-12-29T09:35:34.369Z,94927.00
2023-12-29T09:36:33.247Z,94927.00
2023-12-29T09:37:33.221Z,94926.00
2023-12-29T09:38:33.250Z,94925.00
2023-12-29T09:39:33.237Z,94924.00
2023-12-29T09:40:33.224Z,94925.00
2023-12-29T09:41:33.246Z,94926.00
2023-12-29T09:42:33.236Z,94925.00
2023-12-29T09:43:33.243Z,94923.00
2023-12-29T09:44:33.225Z,94923.00
2023-12-29T09:45:33.225Z,94926.00
2023-12-29T09:46:33.314Z,94927.00
2023-12-29T09:47:34.508Z,94924.00
2023-12-29T09:48:33.323Z,94922.00
2023-12-29T09:49:33.279Z,94918.00
2023-12-29T09:50:33.232Z,94916.00
2023-12-29T09:51:33.255Z,94916.00
2023-12-29T09:52:33.286Z,94914.00
2023-12-29T09:53:33.361Z,94908.00
2023-12-29T09:54:33.418Z,94905.00
2023-12-29T09:55:33.498Z,94906.00
2023-12-29T09:56:33.566Z,94907.00
2023-12-29T09:57:33.629Z,94909.00
2023-12-29T09:58:33.712Z,94908.00
2023-12-29T09:59:33.781Z,94902.00
2023-12-29T10:00:33.951Z,94902.00
2023-12-29T10:01:34.017Z,94896.00
2023-12-29T10:02:33.999Z,94897.00
2023-12-29T10:03:34.095Z,94897.00
2023-12-29T10:04:34.268Z,94896.00
2023-12-29T10:05:34.223Z,94897.00
2023-12-29T10:06:34.315Z,94895.00
2023-12-29T10:07:34.339Z,94896.00
2023-12-29T10:08:34.394Z,94891.00
2023-12-29T10:09:34.489Z,94889.00
2023-12-29T10:10:34.535Z,94890.00
2023-12-29T10:11:34.595Z,94889.00
2023-12-29T10:12:34.706Z,94889.00
2023-12-29T10:13:34.760Z,94888.00
2023-12-29T10:14:34.851Z,94883.00
2023-12-29T10:15:35.005Z,94878.00
2023-12-29T10:16:34.964Z,94876.00
2023-12-29T10:17:35.103Z,94875.00
2023-12-29T10:18:35.218Z,94875.00
2023-12-29T10:19:35.280Z,94877.00
2023-12-29T10:20:35.264Z,94877.00
2023-12-29T10:21:35.336Z,94876.00
2023-12-29T10:22:35.427Z,94875.00
2023-12-29T10:23:36.318Z,94874.00
2023-12-29T10:24:35.551Z,94871.00
2023-12-29T10:25:35.599Z,94869.00
2023-12-29T10:26:35.694Z,94869.00
2023-12-29T10:27:35.773Z,94869.00
2023-12-29T10:28:35.833Z,94866.00
2023-12-29T10:29:35.888Z,94863.00
2023-12-29T10:30:36.080Z,94861.00
2023-12-29T10:31:36.122Z,94857.00
2023-12-29T10:32:36.222Z,94857.00
2023-12-29T10:33:36.344Z,94856.00
2023-12-29T10:34:36.309Z,94855.00
2023-12-29T10:35:36.501Z,94854.00
2023-12-29T10:36:36.414Z,94852.00
2023-12-29T10:37:36.448Z,94850.00
2023-12-29T10:38:36.540Z,94848.00
2023-12-29T10:39:36.677Z,94846.00
2023-12-29T10:40:36.645Z,94843.00
2023-12-29T10:41:36.699Z,94841.00
2023-12-29T10:42:36.794Z,94837.00
2023-12-29T10:43:36.832Z,94836.00
2023-12-29T10:44:36.892Z,94835.00
2023-12-29T10:45:37.021Z,94835.00
2023-12-29T10:46:37.045Z,94829.00
2023-12-29T10:47:37.132Z,94828.00
2023-12-29T10:48:37.185Z,94826.00
2023-12-29T10:49:37.239Z,94824.00
2023-12-29T10:50:37.237Z,94823.00
2023-12-29T10:51:37.347Z,94822.00
2023-12-29T10:52:37.328Z,94824.00
2023-12-29T10:53:40.500Z,94822.00
2023-12-29T10:54:37.383Z,94819.00
2023-12-29T10:55:37.375Z,94817.00
2023-12-29T10:56:37.384Z,94815.00
2023-12-29T10:57:37.372Z,94812.00
2023-12-29T10:58:37.381Z,94808.00
2023-12-29T10:59:37.398Z,94803.00
2023-12-29T11:00:37.409Z,94798.00
2023-12-29T11:01:37.557Z,94797.00
2023-12-29T11:02:37.411Z,94797.00
2023-12-29T11:03:37.399Z,94796.00
2023-12-29T11:04:37.390Z,94800.00
2023-12-29T11:05:37.500Z,94799.00
2023-12-29T11:06:37.409Z,94798.00
2023-12-29T11:07:37.382Z,94798.00
2023-12-29T11:08:37.393Z,94795.00
2023-12-29T11:09:37.447Z,94793.00
2023-12-29T11:10:37.384Z,94790.00
2023-12-29T11:11:37.399Z,94788.00
2023-12-29T11:12:37.435Z,94786.00
2023-12-29T11:13:37.413Z,94785.00
2023-12-29T11:14:37.408Z,94787.00
2023-12-29T11:15:37.439Z,94786.00
2023-12-29T11:16:37.409Z,94785.00
2023-12-29T11:17:37.482Z,94786.00
2023-12-29T11:18:37.483Z,94784.00
2023-12-29T11:19:37.467Z,94781.00
2023-12-29T11:20:37.402Z,94779.00
2023-12-29T11:21:37.414Z,94777.00
2023-12-29T11:22:37.407Z,94780.00
2023-12-29T11:23:37.439Z,94778.00
2023-12-29T11:24:41.316Z,94775.00
2023-12-29T11:25:38.517Z,94773.00
2023-12-29T11:26:37.468Z,94770.00
2023-12-29T11:27:37.538Z,94772.00
2023-12-29T11:28:37.881Z,94775.00
2023-12-29T11:29:37.471Z,94773.00
2023-12-29T11:30:37.581Z,94773.00
2023-12-29T11:31:37.627Z,94774.00
2023-12-29T11:32:37.544Z,94772.00
2023-12-29T11:33:37.630Z,94770.00
2023-12-29T11:34:37.563Z,94762.00
2023-12-29T11:35:37.924Z,94764.00
2023-12-29T11:36:37.505Z,94762.00
2023-12-29T11:37:37.498Z,94761.00
2023-12-29T11:38:37.484Z,94761.00
2023-12-29T11:39:37.514Z,94761.00
2023-12-29T11:40:37.480Z,94757.00
2023-12-29T11:41:37.515Z,94754.00
2023-12-29T11:42:37.519Z,94754.00
2023-12-29T11:43:37.538Z,94749.00
2023-12-29T11:44:37.511Z,94747.00